Upata, Venezuela
Current Conditions -  °F | °C
As of 11:00 AM on Thursday 18 Dec 2014 (Local Time) from TTPP Reporting Station
Rain Showers Rain Showers  
Wind Chill: 84°   Ceiling: 1400
Heat Index: 90°   Visibility: 6mi
Dew Point: 72°   Wind: 10mph
Humidity: 66%   Direction: 70°ENE
Pressure: 29.94"   Gusts: NA
Location:  8.02°N, 62.41°W
Report Text: TTPP 181500Z 07009KT 9999 VCSH BKN014TCU 29/22 Q1014 NOSIG
Loading
Personal Weather Stations






























Interactive Weather Map New forecast layout! Learn more

10-Day Weather Forecast

Advertisements
Track Severe Weather on mobile